sensor_id;sensor_type;location;lat;lon;timestamp;temperature;humidity
12726;DHT22;6427;49.754;6.106;2023-02-05T00:00:15;8.30;99.90
12726;DHT22;6427;49.754;6.106;2023-02-05T00:02:42;8.20;99.90
12726;DHT22;6427;49.754;6.106;2023-02-05T00:05:10;8.30;99.90
12726;DHT22;6427;49.754;6.106;2023-02-05T00:07:37;8.30;99.90
12726;DHT22;6427;49.754;6.106;2023-02-05T00:10:05;8.30;99.90
12726;DHT22;6427;49.754;6.106;2023-02-05T00:12:32;8.30;99.90
12726;DHT22;6427;49.754;6.106;2023-02-05T00:15:00;8.30;99.90
12726;DHT22;6427;49.754;6.106;2023-02-05T00:17:27;8.30;99.90
12726;DHT22;6427;49.754;6.106;2023-02-05T00:19:55;8.20;99.90
12726;DHT22;6427;49.754;6.106;2023-02-05T00:22:23;8.20;99.90
12726;DHT22;6427;49.754;6.106;2023-02-05T00:24:51;8.20;99.90
12726;DHT22;6427;49.754;6.106;2023-02-05T00:27:18;8.20;99.90
12726;DHT22;6427;49.754;6.106;2023-02-05T00:29:46;8.20;99.90
12726;DHT22;6427;49.754;6.106;2023-02-05T00:32:13;8.20;99.90
12726;DHT22;6427;49.754;6.106;2023-02-05T00:34:41;8.20;99.90
12726;DHT22;6427;49.754;6.106;2023-02-05T00:37:08;8.20;99.90
12726;DHT22;6427;49.754;6.106;2023-02-05T00:39:36;8.20;99.90
12726;DHT22;6427;49.754;6.106;2023-02-05T00:42:04;8.20;99.90
12726;DHT22;6427;49.754;6.106;2023-02-05T00:44:33;8.20;99.90
12726;DHT22;6427;49.754;6.106;2023-02-05T00:46:59;8.20;99.90
12726;DHT22;6427;49.754;6.106;2023-02-05T00:49:27;8.20;99.90
12726;DHT22;6427;49.754;6.106;2023-02-05T00:51:55;8.10;99.90
12726;DHT22;6427;49.754;6.106;2023-02-05T00:54:23;8.10;99.90
12726;DHT22;6427;49.754;6.106;2023-02-05T00:56:51;8.10;99.90
12726;DHT22;6427;49.754;6.106;2023-02-05T00:59:19;8.10;99.90
12726;DHT22;6427;49.754;6.106;2023-02-05T01:01:47;8.00;99.90
12726;DHT22;6427;49.754;6.106;2023-02-05T01:04:15;8.10;99.90
12726;DHT22;6427;49.754;6.106;2023-02-05T01:06:42;8.30;99.90
12726;DHT22;6427;49.754;6.106;2023-02-05T01:09:10;8.30;99.90
12726;DHT22;6427;49.754;6.106;2023-02-05T01:11:37;8.20;99.90
12726;DHT22;6427;49.754;6.106;2023-02-05T01:14:05;8.20;99.90
12726;DHT22;6427;49.754;6.106;2023-02-05T01:16:33;8.10;99.90
12726;DHT22;6427;49.754;6.106;2023-02-05T01:19:01;8.10;99.90
12726;DHT22;6427;49.754;6.106;2023-02-05T01:21:28;8.10;99.90
12726;DHT22;6427;49.754;6.106;2023-02-05T01:23:56;8.00;99.90
12726;DHT22;6427;49.754;6.106;2023-02-05T01:26:23;8.00;99.90
12726;DHT22;6427;49.754;6.106;2023-02-05T01:28:51;7.90;99.90
12726;DHT22;6427;49.754;6.106;2023-02-05T01:31:18;7.90;99.90
12726;DHT22;6427;49.754;6.106;2023-02-05T01:33:46;7.90;99.90
12726;DHT22;6427;49.754;6.106;2023-02-05T01:36:13;7.90;99.90
12726;DHT22;6427;49.754;6.106;2023-02-05T01:38:41;7.80;99.90
12726;DHT22;6427;49.754;6.106;2023-02-05T01:41:09;7.80;99.90
12726;DHT22;6427;49.754;6.106;2023-02-05T01:43:36;7.80;99.90
12726;DHT22;6427;49.754;6.106;2023-02-05T01:46:15;7.80;99.90
12726;DHT22;6427;49.754;6.106;2023-02-05T01:48:41;7.80;99.90
12726;DHT22;6427;49.754;6.106;2023-02-05T01:51:09;7.80;99.90
12726;DHT22;6427;49.754;6.106;2023-02-05T01:53:36;7.80;99.90
12726;DHT22;6427;49.754;6.106;2023-02-05T01:56:09;7.80;99.90
12726;DHT22;6427;49.754;6.106;2023-02-05T01:58:33;7.80;99.90
12726;DHT22;6427;49.754;6.106;2023-02-05T02:00:59;7.80;99.90
12726;DHT22;6427;49.754;6.106;2023-02-05T02:03:27;7.80;99.90
12726;DHT22;6427;49.754;6.106;2023-02-05T02:05:54;8.10;99.90
12726;DHT22;6427;49.754;6.106;2023-02-05T02:08:22;8.10;99.90
12726;DHT22;6427;49.754;6.106;2023-02-05T02:10:50;8.00;99.90
12726;DHT22;6427;49.754;6.106;2023-02-05T02:13:18;8.00;99.90
12726;DHT22;6427;49.754;6.106;2023-02-05T02:15:45;8.00;99.90
12726;DHT22;6427;49.754;6.106;2023-02-05T02:18:13;7.90;99.90
12726;DHT22;6427;49.754;6.106;2023-02-05T02:23:45;7.90;99.90
12726;DHT22;6427;49.754;6.106;2023-02-05T02:26:16;7.80;99.90
12726;DHT22;6427;49.754;6.106;2023-02-05T02:29:01;7.80;99.90
12726;DHT22;6427;49.754;6.106;2023-02-05T02:31:30;7.80;99.90
12726;DHT22;6427;49.754;6.106;2023-02-05T02:34:04;7.80;99.90
12726;DHT22;6427;49.754;6.106;2023-02-05T02:36:51;7.80;99.90
12726;DHT22;6427;49.754;6.106;2023-02-05T02:39:30;7.80;99.90
12726;DHT22;6427;49.754;6.106;2023-02-05T02:44:52;8.00;99.90
12726;DHT22;6427;49.754;6.106;2023-02-05T02:47:20;8.00;99.90
12726;DHT22;6427;49.754;6.106;2023-02-05T02:49:46;7.90;99.90
12726;DHT22;6427;49.754;6.106;2023-02-05T02:52:13;7.90;99.90
12726;DHT22;6427;49.754;6.106;2023-02-05T02:54:40;7.80;99.90
12726;DHT22;6427;49.754;6.106;2023-02-05T02:57:08;8.10;99.90
12726;DHT22;6427;49.754;6.106;2023-02-05T02:59:37;8.10;99.90
12726;DHT22;6427;49.754;6.106;2023-02-05T03:02:04;8.10;99.90
12726;DHT22;6427;49.754;6.106;2023-02-05T03:05:15;8.00;99.90
12726;DHT22;6427;49.754;6.106;2023-02-05T03:07:06;8.00;99.90
12726;DHT22;6427;49.754;6.106;2023-02-05T03:12:15;7.90;99.90
12726;DHT22;6427;49.754;6.106;2023-02-05T03:14:43;7.80;99.90
12726;DHT22;6427;49.754;6.106;2023-02-05T03:17:10;7.80;99.90
12726;DHT22;6427;49.754;6.106;2023-02-05T03:19:39;7.80;99.90
12726;DHT22;6427;49.754;6.106;2023-02-05T03:22:07;7.80;99.90
12726;DHT22;6427;49.754;6.106;2023-02-05T03:24:35;7.80;99.90
12726;DHT22;6427;49.754;6.106;2023-02-05T03:27:02;7.80;99.90
12726;DHT22;6427;49.754;6.106;2023-02-05T03:29:31;7.80;99.90
12726;DHT22;6427;49.754;6.106;2023-02-05T03:32:18;7.80;99.90
12726;DHT22;6427;49.754;6.106;2023-02-05T03:40:12;7.70;99.90
12726;DHT22;6427;49.754;6.106;2023-02-05T03:42:53;7.70;99.90
12726;DHT22;6427;49.754;6.106;2023-02-05T03:45:23;8.00;99.90
12726;DHT22;6427;49.754;6.106;2023-02-05T03:50:26;7.90;99.90
12726;DHT22;6427;49.754;6.106;2023-02-05T03:52:54;7.90;99.90
12726;DHT22;6427;49.754;6.106;2023-02-05T03:55:19;7.80;99.90
12726;DHT22;6427;49.754;6.106;2023-02-05T03:57:54;8.00;99.90
12726;DHT22;6427;49.754;6.106;2023-02-05T04:00:19;8.00;99.90
12726;DHT22;6427;49.754;6.106;2023-02-05T04:02:47;7.80;99.90
12726;DHT22;6427;49.754;6.106;2023-02-05T04:05:15;7.80;99.90
12726;DHT22;6427;49.754;6.106;2023-02-05T04:07:43;7.80;99.90
12726;DHT22;6427;49.754;6.106;2023-02-05T04:10:10;7.70;99.90
12726;DHT22;6427;49.754;6.106;2023-02-05T04:12:38;7.80;99.90
12726;DHT22;6427;49.754;6.106;2023-02-05T04:15:05;7.70;99.90
12726;DHT22;6427;49.754;6.106;2023-02-05T04:17:33;7.70;99.90
12726;DHT22;6427;49.754;6.106;2023-02-05T04:20:01;7.70;99.90
12726;DHT22;6427;49.754;6.106;2023-02-05T04:22:28;7.60;99.90
12726;DHT22;6427;49.754;6.106;2023-02-05T04:24:56;7.60;99.90
12726;DHT22;6427;49.754;6.106;2023-02-05T04:27:24;7.60;99.90
12726;DHT22;6427;49.754;6.106;2023-02-05T04:29:52;7.60;99.90
12726;DHT22;6427;49.754;6.106;2023-02-05T04:32:19;7.80;99.90
12726;DHT22;6427;49.754;6.106;2023-02-05T04:34:47;7.80;99.90
12726;DHT22;6427;49.754;6.106;2023-02-05T04:37:16;7.80;99.90
12726;DHT22;6427;49.754;6.106;2023-02-05T04:39:43;7.80;99.90
12726;DHT22;6427;49.754;6.106;2023-02-05T04:42:12;7.80;99.90
12726;DHT22;6427;49.754;6.106;2023-02-05T04:44:39;7.80;99.90
12726;DHT22;6427;49.754;6.106;2023-02-05T04:47:07;7.70;99.90
12726;DHT22;6427;49.754;6.106;2023-02-05T04:49:35;7.70;99.90
12726;DHT22;6427;49.754;6.106;2023-02-05T04:52:03;7.70;99.90
12726;DHT22;6427;49.754;6.106;2023-02-05T04:54:30;7.70;99.90
12726;DHT22;6427;49.754;6.106;2023-02-05T04:56:58;7.70;99.90
12726;DHT22;6427;49.754;6.106;2023-02-05T04:59:25;7.70;99.90
12726;DHT22;6427;49.754;6.106;2023-02-05T05:01:53;7.70;99.90
12726;DHT22;6427;49.754;6.106;2023-02-05T05:04:21;7.70;99.90
12726;DHT22;6427;49.754;6.106;2023-02-05T05:06:49;7.70;99.90
12726;DHT22;6427;49.754;6.106;2023-02-05T05:09:17;7.70;99.90
12726;DHT22;6427;49.754;6.106;2023-02-05T05:11:44;7.70;99.90
12726;DHT22;6427;49.754;6.106;2023-02-05T05:14:12;7.70;99.90
12726;DHT22;6427;49.754;6.106;2023-02-05T05:16:40;7.70;99.90
12726;DHT22;6427;49.754;6.106;2023-02-05T05:19:08;7.60;99.90
12726;DHT22;6427;49.754;6.106;2023-02-05T05:21:35;7.70;99.90
12726;DHT22;6427;49.754;6.106;2023-02-05T05:24:03;7.70;99.90
12726;DHT22;6427;49.754;6.106;2023-02-05T05:26:31;7.90;99.90
12726;DHT22;6427;49.754;6.106;2023-02-05T05:28:59;7.90;99.90
12726;DHT22;6427;49.754;6.106;2023-02-05T05:31:26;7.90;99.90
12726;DHT22;6427;49.754;6.106;2023-02-05T05:33:54;7.90;99.90
12726;DHT22;6427;49.754;6.106;2023-02-05T05:36:21;7.80;99.90
12726;DHT22;6427;49.754;6.106;2023-02-05T05:38:49;7.80;99.90
12726;DHT22;6427;49.754;6.106;2023-02-05T05:41:23;7.80;99.90
12726;DHT22;6427;49.754;6.106;2023-02-05T05:44:06;7.80;99.90
12726;DHT22;6427;49.754;6.106;2023-02-05T05:46:33;7.70;99.90
12726;DHT22;6427;49.754;6.106;2023-02-05T05:49:01;8.00;99.90
12726;DHT22;6427;49.754;6.106;2023-02-05T05:51:29;8.00;99.90
12726;DHT22;6427;49.754;6.106;2023-02-05T05:53:56;7.90;99.90
12726;DHT22;6427;49.754;6.106;2023-02-05T05:56:23;7.90;99.90
12726;DHT22;6427;49.754;6.106;2023-02-05T05:58:52;7.80;99.90
12726;DHT22;6427;49.754;6.106;2023-02-05T06:01:19;7.80;99.90
12726;DHT22;6427;49.754;6.106;2023-02-05T06:03:48;7.80;99.90
12726;DHT22;6427;49.754;6.106;2023-02-05T06:06:15;7.80;99.90
12726;DHT22;6427;49.754;6.106;2023-02-05T06:08:43;7.70;99.90
12726;DHT22;6427;49.754;6.106;2023-02-05T06:11:10;7.70;99.90
12726;DHT22;6427;49.754;6.106;2023-02-05T06:13:38;7.70;99.90
12726;DHT22;6427;49.754;6.106;2023-02-05T06:16:06;7.70;99.90
12726;DHT22;6427;49.754;6.106;2023-02-05T06:18:34;7.60;99.90
12726;DHT22;6427;49.754;6.106;2023-02-05T06:21:01;7.60;99.90
12726;DHT22;6427;49.754;6.106;2023-02-05T06:23:29;7.60;99.90
12726;DHT22;6427;49.754;6.106;2023-02-05T06:25:57;7.60;99.90
12726;DHT22;6427;49.754;6.106;2023-02-05T06:28:24;7.60;99.90
12726;DHT22;6427;49.754;6.106;2023-02-05T06:30:52;7.60;99.90
12726;DHT22;6427;49.754;6.106;2023-02-05T06:33:19;7.60;99.90
12726;DHT22;6427;49.754;6.106;2023-02-05T06:35:48;7.80;99.90
12726;DHT22;6427;49.754;6.106;2023-02-05T06:38:15;7.80;99.90
12726;DHT22;6427;49.754;6.106;2023-02-05T06:40:43;7.80;99.90
12726;DHT22;6427;49.754;6.106;2023-02-05T06:43:10;7.70;99.90
12726;DHT22;6427;49.754;6.106;2023-02-05T06:45:38;7.70;99.90
12726;DHT22;6427;49.754;6.106;2023-02-05T06:48:05;7.90;99.90
12726;DHT22;6427;49.754;6.106;2023-02-05T06:50:33;7.80;99.90
12726;DHT22;6427;49.754;6.106;2023-02-05T06:53:00;7.80;99.90
12726;DHT22;6427;49.754;6.106;2023-02-05T06:55:29;7.70;99.90
12726;DHT22;6427;49.754;6.106;2023-02-05T06:57:56;7.60;99.90
12726;DHT22;6427;49.754;6.106;2023-02-05T07:00:24;7.60;99.90
12726;DHT22;6427;49.754;6.106;2023-02-05T07:02:52;7.50;99.90
12726;DHT22;6427;49.754;6.106;2023-02-05T07:05:20;7.50;99.90
12726;DHT22;6427;49.754;6.106;2023-02-05T07:07:47;7.50;99.90
12726;DHT22;6427;49.754;6.106;2023-02-05T07:10:15;7.50;99.90
12726;DHT22;6427;49.754;6.106;2023-02-05T07:12:42;7.40;99.90
12726;DHT22;6427;49.754;6.106;2023-02-05T07:15:10;7.40;99.90
12726;DHT22;6427;49.754;6.106;2023-02-05T07:17:37;7.60;99.90
12726;DHT22;6427;49.754;6.106;2023-02-05T07:20:05;7.60;99.90
12726;DHT22;6427;49.754;6.106;2023-02-05T07:22:33;7.60;99.90
12726;DHT22;6427;49.754;6.106;2023-02-05T07:25:00;7.50;99.90
12726;DHT22;6427;49.754;6.106;2023-02-05T07:27:29;7.50;99.90
12726;DHT22;6427;49.754;6.106;2023-02-05T07:29:55;7.40;99.90
12726;DHT22;6427;49.754;6.106;2023-02-05T07:32:24;7.40;99.90
12726;DHT22;6427;49.754;6.106;2023-02-05T07:34:51;7.40;99.90
12726;DHT22;6427;49.754;6.106;2023-02-05T07:37:19;7.40;99.90
12726;DHT22;6427;49.754;6.106;2023-02-05T07:39:47;7.40;99.90
12726;DHT22;6427;49.754;6.106;2023-02-05T07:42:15;7.40;99.90
12726;DHT22;6427;49.754;6.106;2023-02-05T07:44:43;7.40;99.90
12726;DHT22;6427;49.754;6.106;2023-02-05T07:47:11;7.30;99.90
12726;DHT22;6427;49.754;6.106;2023-02-05T07:49:38;7.30;99.90
12726;DHT22;6427;49.754;6.106;2023-02-05T07:52:06;7.30;99.90
12726;DHT22;6427;49.754;6.106;2023-02-05T07:54:33;7.30;99.90
12726;DHT22;6427;49.754;6.106;2023-02-05T07:57:01;7.20;99.90
12726;DHT22;6427;49.754;6.106;2023-02-05T07:59:28;7.20;99.90
12726;DHT22;6427;49.754;6.106;2023-02-05T08:01:57;7.20;99.90
12726;DHT22;6427;49.754;6.106;2023-02-05T08:04:24;7.20;99.90
12726;DHT22;6427;49.754;6.106;2023-02-05T08:06:52;7.20;99.90
12726;DHT22;6427;49.754;6.106;2023-02-05T08:09:19;7.40;99.90
12726;DHT22;6427;49.754;6.106;2023-02-05T08:11:48;7.50;99.90
12726;DHT22;6427;49.754;6.106;2023-02-05T08:14:15;7.50;99.90
12726;DHT22;6427;49.754;6.106;2023-02-05T08:16:43;7.50;99.90
12726;DHT22;6427;49.754;6.106;2023-02-05T08:19:15;7.50;99.90
12726;DHT22;6427;49.754;6.106;2023-02-05T08:21:41;7.50;99.90
12726;DHT22;6427;49.754;6.106;2023-02-05T08:24:09;7.50;99.90
12726;DHT22;6427;49.754;6.106;2023-02-05T08:26:37;7.60;99.90
12726;DHT22;6427;49.754;6.106;2023-02-05T08:29:04;7.60;99.90
12726;DHT22;6427;49.754;6.106;2023-02-05T08:31:32;7.60;99.90
12726;DHT22;6427;49.754;6.106;2023-02-05T08:34:00;7.60;99.90
12726;DHT22;6427;49.754;6.106;2023-02-05T08:36:27;7.60;99.90
12726;DHT22;6427;49.754;6.106;2023-02-05T08:38:55;7.60;99.90
12726;DHT22;6427;49.754;6.106;2023-02-05T08:41:23;7.60;99.90
12726;DHT22;6427;49.754;6.106;2023-02-05T08:43:51;7.70;99.90
12726;DHT22;6427;49.754;6.106;2023-02-05T08:46:20;7.70;99.90
12726;DHT22;6427;49.754;6.106;2023-02-05T08:48:47;7.70;99.90
12726;DHT22;6427;49.754;6.106;2023-02-05T08:51:14;7.70;99.90
12726;DHT22;6427;49.754;6.106;2023-02-05T08:53:41;7.70;99.90
12726;DHT22;6427;49.754;6.106;2023-02-05T08:56:09;7.80;99.90
12726;DHT22;6427;49.754;6.106;2023-02-05T08:58:37;7.80;99.90
12726;DHT22;6427;49.754;6.106;2023-02-05T09:01:09;7.80;99.90
12726;DHT22;6427;49.754;6.106;2023-02-05T09:03:36;7.80;99.90
12726;DHT22;6427;49.754;6.106;2023-02-05T09:06:05;7.80;99.90
12726;DHT22;6427;49.754;6.106;2023-02-05T09:08:32;7.90;99.90
12726;DHT22;6427;49.754;6.106;2023-02-05T09:11:01;7.90;99.90
12726;DHT22;6427;49.754;6.106;2023-02-05T09:13:28;7.90;99.90
12726;DHT22;6427;49.754;6.106;2023-02-05T09:15:56;7.90;99.90
12726;DHT22;6427;49.754;6.106;2023-02-05T09:18:23;7.90;99.90
12726;DHT22;6427;49.754;6.106;2023-02-05T09:20:52;7.90;99.90
12726;DHT22;6427;49.754;6.106;2023-02-05T09:23:19;7.90;99.90
12726;DHT22;6427;49.754;6.106;2023-02-05T09:25:48;7.90;99.90
12726;DHT22;6427;49.754;6.106;2023-02-05T09:28:15;7.90;99.90
12726;DHT22;6427;49.754;6.106;2023-02-05T09:30:43;7.90;99.90
12726;DHT22;6427;49.754;6.106;2023-02-05T09:33:11;7.90;99.90
12726;DHT22;6427;49.754;6.106;2023-02-05T09:35:39;7.90;99.90
12726;DHT22;6427;49.754;6.106;2023-02-05T09:38:07;7.90;99.90
12726;DHT22;6427;49.754;6.106;2023-02-05T09:40:49;7.80;99.90
12726;DHT22;6427;49.754;6.106;2023-02-05T09:43:17;7.90;99.90
12726;DHT22;6427;49.754;6.106;2023-02-05T09:51:01;7.80;99.90
12726;DHT22;6427;49.754;6.106;2023-02-05T09:53:32;7.80;99.90
12726;DHT22;6427;49.754;6.106;2023-02-05T09:55:56;8.00;99.90
12726;DHT22;6427;49.754;6.106;2023-02-05T09:58:25;8.00;99.90
12726;DHT22;6427;49.754;6.106;2023-02-05T10:01:05;8.00;99.90
12726;DHT22;6427;49.754;6.106;2023-02-05T10:03:40;8.00;99.90
12726;DHT22;6427;49.754;6.106;2023-02-05T10:12:04;8.00;99.90
12726;DHT22;6427;49.754;6.106;2023-02-05T10:17:27;7.90;99.90
12726;DHT22;6427;49.754;6.106;2023-02-05T10:25:32;7.80;99.90
12726;DHT22;6427;49.754;6.106;2023-02-05T10:28:04;7.80;99.90
12726;DHT22;6427;49.754;6.106;2023-02-05T10:30:46;7.80;99.90
12726;DHT22;6427;49.754;6.106;2023-02-05T10:33:17;7.80;99.90
12726;DHT22;6427;49.754;6.106;2023-02-05T10:35:59;7.80;99.90
12726;DHT22;6427;49.754;6.106;2023-02-05T10:38:27;7.70;99.90
12726;DHT22;6427;49.754;6.106;2023-02-05T10:40:55;7.70;99.90
12726;DHT22;6427;49.754;6.106;2023-02-05T10:43:44;7.60;99.90
12726;DHT22;6427;49.754;6.106;2023-02-05T10:46:11;7.60;99.90
12726;DHT22;6427;49.754;6.106;2023-02-05T10:48:45;7.60;99.90
12726;DHT22;6427;49.754;6.106;2023-02-05T10:51:15;7.60;99.90
12726;DHT22;6427;49.754;6.106;2023-02-05T10:53:42;7.60;99.90
12726;DHT22;6427;49.754;6.106;2023-02-05T10:56:13;7.60;99.90
12726;DHT22;6427;49.754;6.106;2023-02-05T10:58:44;7.60;99.90
12726;DHT22;6427;49.754;6.106;2023-02-05T11:01:19;7.60;99.90
12726;DHT22;6427;49.754;6.106;2023-02-05T11:04:01;7.60;99.90
12726;DHT22;6427;49.754;6.106;2023-02-05T11:06:30;7.60;99.90
12726;DHT22;6427;49.754;6.106;2023-02-05T11:08:56;7.80;99.90
12726;DHT22;6427;49.754;6.106;2023-02-05T11:11:24;7.80;99.90
12726;DHT22;6427;49.754;6.106;2023-02-05T11:14:13;7.80;99.90
12726;DHT22;6427;49.754;6.106;2023-02-05T11:16:19;7.80;99.90
12726;DHT22;6427;49.754;6.106;2023-02-05T11:18:54;7.80;99.90
12726;DHT22;6427;49.754;6.106;2023-02-05T11:21:14;7.80;99.90
12726;DHT22;6427;49.754;6.106;2023-02-05T11:23:52;7.80;99.90
12726;DHT22;6427;49.754;6.106;2023-02-05T11:26:20;7.80;99.90
12726;DHT22;6427;49.754;6.106;2023-02-05T11:28:47;7.80;99.90
12726;DHT22;6427;49.754;6.106;2023-02-05T11:33:48;7.90;99.90
12726;DHT22;6427;49.754;6.106;2023-02-05T11:36:23;8.10;99.90
12726;DHT22;6427;49.754;6.106;2023-02-05T11:38:53;8.10;99.90
12726;DHT22;6427;49.754;6.106;2023-02-05T11:41:30;8.10;99.90
12726;DHT22;6427;49.754;6.106;2023-02-05T11:44:00;8.00;99.90
12726;DHT22;6427;49.754;6.106;2023-02-05T11:46:25;7.90;99.90
12726;DHT22;6427;49.754;6.106;2023-02-05T11:48:58;8.10;99.90
12726;DHT22;6427;49.754;6.106;2023-02-05T11:51:44;8.10;99.90
12726;DHT22;6427;49.754;6.106;2023-02-05T11:54:33;8.10;99.90
12726;DHT22;6427;49.754;6.106;2023-02-05T11:56:39;8.00;99.90
12726;DHT22;6427;49.754;6.106;2023-02-05T11:59:17;8.00;99.90
12726;DHT22;6427;49.754;6.106;2023-02-05T12:01:44;8.10;99.90
12726;DHT22;6427;49.754;6.106;2023-02-05T12:06:45;8.10;99.90
12726;DHT22;6427;49.754;6.106;2023-02-05T12:09:10;8.10;99.90
12726;DHT22;6427;49.754;6.106;2023-02-05T12:17:06;8.20;99.90
12726;DHT22;6427;49.754;6.106;2023-02-05T12:19:32;8.20;99.90
12726;DHT22;6427;49.754;6.106;2023-02-05T12:22:06;8.20;99.90
12726;DHT22;6427;49.754;6.106;2023-02-05T12:33:45;8.40;99.90
12726;DHT22;6427;49.754;6.106;2023-02-05T12:38:39;8.00;99.90
12726;DHT22;6427;49.754;6.106;2023-02-05T12:41:18;7.90;99.90
12726;DHT22;6427;49.754;6.106;2023-02-05T12:43:47;7.90;99.90
12726;DHT22;6427;49.754;6.106;2023-02-05T12:49:14;7.80;99.90
12726;DHT22;6427;49.754;6.106;2023-02-05T12:52:00;7.80;99.90
12726;DHT22;6427;49.754;6.106;2023-02-05T12:57:13;7.80;99.90
12726;DHT22;6427;49.754;6.106;2023-02-05T12:59:44;7.80;99.90
12726;DHT22;6427;49.754;6.106;2023-02-05T13:02:32;7.80;99.90
12726;DHT22;6427;49.754;6.106;2023-02-05T13:05:15;7.80;99.90
12726;DHT22;6427;49.754;6.106;2023-02-05T13:07:42;7.80;99.90
12726;DHT22;6427;49.754;6.106;2023-02-05T13:10:19;7.80;99.90
12726;DHT22;6427;49.754;6.106;2023-02-05T13:12:44;7.80;99.90
12726;DHT22;6427;49.754;6.106;2023-02-05T13:17:42;7.80;99.90
12726;DHT22;6427;49.754;6.106;2023-02-05T13:20:23;7.70;99.90
12726;DHT22;6427;49.754;6.106;2023-02-05T13:22:55;7.80;99.90
12726;DHT22;6427;49.754;6.106;2023-02-05T13:25:35;7.80;99.90
12726;DHT22;6427;49.754;6.106;2023-02-05T13:28:35;7.70;99.90
12726;DHT22;6427;49.754;6.106;2023-02-05T13:31:21;7.70;99.90
12726;DHT22;6427;49.754;6.106;2023-02-05T13:33:48;7.70;99.90
12726;DHT22;6427;49.754;6.106;2023-02-05T13:41:39;7.70;99.90
12726;DHT22;6427;49.754;6.106;2023-02-05T13:52:33;7.70;99.90
12726;DHT22;6427;49.754;6.106;2023-02-05T13:55:02;7.70;99.90
12726;DHT22;6427;49.754;6.106;2023-02-05T13:58:04;7.70;99.90
12726;DHT22;6427;49.754;6.106;2023-02-05T14:00:27;7.70;99.90
12726;DHT22;6427;49.754;6.106;2023-02-05T14:02:55;7.60;99.90
12726;DHT22;6427;49.754;6.106;2023-02-05T14:05:32;7.60;99.90
12726;DHT22;6427;49.754;6.106;2023-02-05T14:07:59;7.60;99.90
12726;DHT22;6427;49.754;6.106;2023-02-05T14:10:34;7.60;99.90
12726;DHT22;6427;49.754;6.106;2023-02-05T14:13:16;7.60;99.90
12726;DHT22;6427;49.754;6.106;2023-02-05T14:15:40;7.60;99.90
12726;DHT22;6427;49.754;6.106;2023-02-05T14:18:11;7.70;99.90
12726;DHT22;6427;49.754;6.106;2023-02-05T14:20:36;7.70;99.90
12726;DHT22;6427;49.754;6.106;2023-02-05T14:23:10;7.60;99.90
12726;DHT22;6427;49.754;6.106;2023-02-05T14:33:36;7.60;99.90
12726;DHT22;6427;49.754;6.106;2023-02-05T14:47:37;7.40;99.90
12726;DHT22;6427;49.754;6.106;2023-02-05T14:49:26;7.40;99.90
12726;DHT22;6427;49.754;6.106;2023-02-05T14:51:55;7.40;99.90
12726;DHT22;6427;49.754;6.106;2023-02-05T14:54:21;7.40;99.90
12726;DHT22;6427;49.754;6.106;2023-02-05T14:56:53;7.50;99.90
12726;DHT22;6427;49.754;6.106;2023-02-05T14:59:26;7.50;99.90
12726;DHT22;6427;49.754;6.106;2023-02-05T15:01:56;7.50;99.90
12726;DHT22;6427;49.754;6.106;2023-02-05T15:04:44;7.50;99.90
12726;DHT22;6427;49.754;6.106;2023-02-05T15:07:08;7.40;99.90
12726;DHT22;6427;49.754;6.106;2023-02-05T15:09:39;7.40;99.90
12726;DHT22;6427;49.754;6.106;2023-02-05T15:12:27;7.30;99.90
12726;DHT22;6427;49.754;6.106;2023-02-05T15:14:52;7.30;99.90
12726;DHT22;6427;49.754;6.106;2023-02-05T15:19:59;7.30;99.90
12726;DHT22;6427;49.754;6.106;2023-02-05T15:22:34;7.30;99.90
12726;DHT22;6427;49.754;6.106;2023-02-05T15:25:01;7.50;99.90
12726;DHT22;6427;49.754;6.106;2023-02-05T15:27:41;7.50;99.90
12726;DHT22;6427;49.754;6.106;2023-02-05T15:30:08;7.40;99.90
12726;DHT22;6427;49.754;6.106;2023-02-05T15:35:06;7.40;99.90
12726;DHT22;6427;49.754;6.106;2023-02-05T15:37:37;7.30;99.90
12726;DHT22;6427;49.754;6.106;2023-02-05T15:40:23;7.30;99.90
12726;DHT22;6427;49.754;6.106;2023-02-05T15:42:51;7.50;99.90
12726;DHT22;6427;49.754;6.106;2023-02-05T15:45:28;7.50;99.90
12726;DHT22;6427;49.754;6.106;2023-02-05T15:50:28;7.40;99.90
12726;DHT22;6427;49.754;6.106;2023-02-05T15:52:56;7.30;99.90
12726;DHT22;6427;49.754;6.106;2023-02-05T15:55:24;7.30;99.90
12726;DHT22;6427;49.754;6.106;2023-02-05T15:57:53;7.30;99.90
12726;DHT22;6427;49.754;6.106;2023-02-05T16:00:21;7.20;99.90
12726;DHT22;6427;49.754;6.106;2023-02-05T16:02:57;7.20;99.90
12726;DHT22;6427;49.754;6.106;2023-02-05T16:05:20;7.20;99.90
12726;DHT22;6427;49.754;6.106;2023-02-05T16:07:48;7.20;99.90
12726;DHT22;6427;49.754;6.106;2023-02-05T16:10:16;7.10;99.90
12726;DHT22;6427;49.754;6.106;2023-02-05T16:13:06;7.10;99.90
12726;DHT22;6427;49.754;6.106;2023-02-05T16:15:39;7.10;99.90
12726;DHT22;6427;49.754;6.106;2023-02-05T16:18:42;7.00;99.90
12726;DHT22;6427;49.754;6.106;2023-02-05T16:20:41;7.00;99.90
12726;DHT22;6427;49.754;6.106;2023-02-05T16:23:10;7.00;99.90
12726;DHT22;6427;49.754;6.106;2023-02-05T16:25:55;7.00;99.90
12726;DHT22;6427;49.754;6.106;2023-02-05T16:28:38;7.00;99.90
12726;DHT22;6427;49.754;6.106;2023-02-05T16:31:04;6.90;99.90
12726;DHT22;6427;49.754;6.106;2023-02-05T16:33:39;6.90;99.90
12726;DHT22;6427;49.754;6.106;2023-02-05T16:36:03;6.90;99.90
12726;DHT22;6427;49.754;6.106;2023-02-05T16:38:31;6.90;99.90
12726;DHT22;6427;49.754;6.106;2023-02-05T16:40:59;6.80;99.90
12726;DHT22;6427;49.754;6.106;2023-02-05T16:43:35;6.90;99.90
12726;DHT22;6427;49.754;6.106;2023-02-05T16:51:36;6.80;99.90
12726;DHT22;6427;49.754;6.106;2023-02-05T16:54:26;6.80;99.90
12726;DHT22;6427;49.754;6.106;2023-02-05T16:56:33;7.00;99.90
12726;DHT22;6427;49.754;6.106;2023-02-05T16:59:01;7.00;99.90
12726;DHT22;6427;49.754;6.106;2023-02-05T17:01:38;7.00;99.90
12726;DHT22;6427;49.754;6.106;2023-02-05T17:04:04;7.00;99.90
12726;DHT22;6427;49.754;6.106;2023-02-05T17:06:32;6.90;99.90
12726;DHT22;6427;49.754;6.106;2023-02-05T17:09:00;6.90;99.90
12726;DHT22;6427;49.754;6.106;2023-02-05T17:11:37;6.90;99.90
12726;DHT22;6427;49.754;6.106;2023-02-05T17:14:31;6.90;99.90
12726;DHT22;6427;49.754;6.106;2023-02-05T17:17:14;7.00;99.90
12726;DHT22;6427;49.754;6.106;2023-02-05T17:19:32;7.00;99.90
12726;DHT22;6427;49.754;6.106;2023-02-05T17:24:42;6.90;99.90
12726;DHT22;6427;49.754;6.106;2023-02-05T17:27:13;6.90;99.90
12726;DHT22;6427;49.754;6.106;2023-02-05T17:29:39;6.80;99.90
12726;DHT22;6427;49.754;6.106;2023-02-05T17:32:07;6.80;99.90
12726;DHT22;6427;49.754;6.106;2023-02-05T17:34:34;6.80;99.90
12726;DHT22;6427;49.754;6.106;2023-02-05T17:37:02;6.80;99.90
12726;DHT22;6427;49.754;6.106;2023-02-05T17:39:30;6.80;99.90
12726;DHT22;6427;49.754;6.106;2023-02-05T17:41:58;6.80;99.90
12726;DHT22;6427;49.754;6.106;2023-02-05T17:44:31;6.70;99.90
12726;DHT22;6427;49.754;6.106;2023-02-05T17:47:02;6.70;99.90
12726;DHT22;6427;49.754;6.106;2023-02-05T17:49:29;6.70;99.90
12726;DHT22;6427;49.754;6.106;2023-02-05T17:51:56;6.70;99.90
12726;DHT22;6427;49.754;6.106;2023-02-05T17:54:26;6.80;99.90
12726;DHT22;6427;49.754;6.106;2023-02-05T17:56:53;6.80;99.90
12726;DHT22;6427;49.754;6.106;2023-02-05T17:59:22;6.80;99.90
12726;DHT22;6427;49.754;6.106;2023-02-05T18:01:48;6.70;99.90
12726;DHT22;6427;49.754;6.106;2023-02-05T18:04:17;6.70;99.90
12726;DHT22;6427;49.754;6.106;2023-02-05T18:06:47;6.70;99.90
12726;DHT22;6427;49.754;6.106;2023-02-05T18:09:15;6.70;99.90
12726;DHT22;6427;49.754;6.106;2023-02-05T18:11:43;6.70;99.90